Hauptseite
METAR-TAF:

METAR-TAF

Flughäfen :

Pohnpei, Mikronesien

Flughafen Pohnpei

Breite: 06-59N, Länge: 158-12E, Höhe: 2 m

Beobachtung

Neuester Wetterbericht von vor 57 Minuten, um 08:55 UTC
Wind 7 kt aus Ost/Nordost
Temperatur 28°C
Luftfeuchtigkeit 84%
Luftdruck 1007 hPa
Sichtweite: 24.1 km
Aufgelockert bewölkt in der Höhe von 1800 ft
Durchbrochene Bewölkung in der Höhe von 30000 ft

METAR: PTPN 210855Z 06007KT 15SM SCT018 BKN300 28/25 A2975

Zeit: 20:52 (09:52 UTC)

Prognose

Neuester Wetterbericht von vor 4 Stunden und 20 Minuten, um 05:32 UTC
Gültige Prognose vom 21 um 06 UTC bis 22 um 06 UTC
Wind 12 kt aus Nordost
Sichtweite: 10 km
Aufgelockert bewölkt in der Höhe von 1800 ft

TAF: PTPN 210532Z 2106/2206 05012KT P6SM SCT018

Wetterbeobachtungen und Prognosen von mehr als 4000 Flughäfen (METAR und TAF Bericht).

Die verfügbaren Stationen werden durch gelbe und rote Markierungen auf der Karte dargestellt.

Führen Sie die Maus auf sie, um den Namen der Station zu sehen.

Darauf klicken, um die Beobachtung von Wetterbeobachtungen und Prognosen zu sehen.

Um die Karte zu ändern : klicken Sie auf den grünen Tasten mit einem schwarzen Kreuz Zum Vergrößern, auf den grünen Button mit einem Gedankenstrich zu verkleinern, oder auf die grünen Pfeile für benachbarte Karten.


METAR-TAF: